Folkston, Georgia
Current Conditions -  °F | °C
As of 2:56 PM on Saturday 25 Oct 2014 (Local Time) from KJAX Reporting Station
Clear Clear  
Wind Chill: 77°   Ceiling: Unl
Heat Index: 78°   Visibility: 10mi
Dew Point: 47°   Wind: 6mph
Humidity: 34%   Direction: NA
Pressure: 29.97"   Gusts: NA
Location:  30.83°N, 82.01°W
Report Text: KJAX 251856Z VRB05KT 10SM CLR 25/08 A2997 RMK AO2 SLP148 T02500083 $
Loading
Personal Weather Stations






























Interactive Weather Map
Tropical Storm Tracking
New forecast layout! Learn more

10-Day Weather Forecast

Advertisements
Track Severe Weather on mobile